Phoenix (PHX/KPHX)

Information

Location
Phoenix, AZ
Local Time
15:40 / 3:40 pm
GMT Time
22:40 / 10:40 pm
Gates
No FAA reported delays
METAR KPHX 242151Z VRB03KT 10SM FEW036 SCT080 SCT120 BKN160 BKN200 30/22 A2986 RMK AO2 SLP094 T03000217
TAF KPHX 242215Z 2422/2524 23005KT P6SM VCSH FEW030 SCT070 BKN120 FM250200 15006KT P6SM SCT060 BKN120 BKN200 FM252000 18006KT P6SM SCT120 BKN200